createdAt,value
2023-03-25T00:01:26.125Z,14.07
2023-03-25T00:03:54.724Z,14.03
2023-03-25T00:06:23.034Z,14.01
2023-03-25T00:08:52.033Z,13.99
2023-03-25T00:11:20.624Z,13.96
2023-03-25T00:13:49.840Z,13.95
2023-03-25T00:16:25.882Z,13.94
2023-03-25T00:18:54.212Z,13.93
2023-03-25T00:21:23.488Z,13.91
2023-03-25T00:23:51.994Z,13.90
2023-03-25T00:26:21.645Z,13.87
2023-03-25T00:28:49.893Z,13.85
2023-03-25T00:31:19.732Z,13.84
2023-03-25T00:33:50.843Z,13.82
2023-03-25T00:36:22.907Z,13.81
2023-03-25T00:38:51.577Z,13.81
2023-03-25T00:41:28.235Z,13.79
2023-03-25T00:43:58.204Z,13.78
2023-03-25T00:46:28.584Z,13.77
2023-03-25T00:48:57.452Z,13.75
2023-03-25T00:51:31.374Z,13.74
2023-03-25T00:54:03.518Z,13.72
2023-03-25T00:56:33.375Z,13.71
2023-03-25T00:59:01.627Z,13.70
2023-03-25T01:01:30.054Z,13.70
2023-03-25T01:04:00.593Z,13.68
2023-03-25T01:06:32.527Z,13.67
2023-03-25T01:09:06.175Z,13.66
2023-03-25T01:11:37.882Z,13.66
2023-03-25T01:14:07.860Z,13.66
2023-03-25T01:16:38.411Z,13.66
2023-03-25T01:19:06.728Z,13.66
2023-03-25T01:21:36.813Z,13.67
2023-03-25T01:24:06.905Z,13.66
2023-03-25T01:26:35.462Z,13.65
2023-03-25T01:29:05.384Z,13.65
2023-03-25T01:31:34.763Z,13.64
2023-03-25T01:34:03.439Z,13.62
2023-03-25T01:36:31.938Z,13.62
2023-03-25T01:39:02.687Z,13.62
2023-03-25T01:41:42.681Z,13.60
2023-03-25T01:44:20.773Z,13.60
2023-03-25T01:46:53.331Z,13.58
2023-03-25T01:49:30.231Z,13.57
2023-03-25T01:52:02.464Z,13.56
2023-03-25T01:54:30.912Z,13.54
2023-03-25T01:57:00.210Z,13.54
2023-03-25T01:59:28.858Z,13.53
2023-03-25T02:02:02.556Z,13.51
2023-03-25T02:04:39.546Z,13.49
2023-03-25T02:07:09.086Z,13.46
2023-03-25T02:09:38.927Z,13.44
2023-03-25T02:12:09.007Z,13.43
2023-03-25T02:14:39.277Z,13.42
2023-03-25T02:17:29.299Z,13.41
2023-03-25T02:20:09.439Z,13.41
2023-03-25T02:23:22.175Z,13.40
2023-03-25T02:26:19.885Z,13.39
2023-03-25T02:28:56.248Z,13.37
2023-03-25T02:31:40.058Z,13.36
2023-03-25T02:34:38.009Z,13.34
2023-03-25T02:37:41.722Z,13.33
2023-03-25T02:40:12.456Z,13.31
2023-03-25T02:42:53.770Z,13.30
2023-03-25T02:45:34.077Z,13.28
2023-03-25T02:48:05.737Z,13.27
2023-03-25T02:50:38.048Z,13.27
2023-03-25T02:53:11.039Z,13.27
2023-03-25T02:55:42.443Z,13.26
2023-03-25T02:58:13.553Z,13.27
2023-03-25T03:00:42.992Z,13.27
2023-03-25T03:03:13.523Z,13.26
2023-03-25T03:05:46.491Z,13.24
2023-03-25T03:08:14.999Z,13.23
2023-03-25T03:10:48.200Z,13.23
2023-03-25T03:13:41.152Z,13.23
2023-03-25T03:16:31.100Z,13.24
2023-03-25T03:19:09.847Z,13.25
2023-03-25T03:21:47.509Z,13.26
2023-03-25T03:24:21.188Z,13.25
2023-03-25T03:26:58.156Z,13.24
2023-03-25T03:29:37.061Z,13.24
2023-03-25T03:32:22.005Z,13.23
2023-03-25T03:34:53.369Z,13.23
2023-03-25T03:37:32.980Z,13.20
2023-03-25T03:40:01.254Z,13.16
2023-03-25T03:42:34.782Z,13.11
2023-03-25T03:45:07.876Z,13.07
2023-03-25T03:47:41.598Z,13.05
2023-03-25T03:50:14.541Z,13.04
2023-03-25T03:52:52.603Z,13.03
2023-03-25T03:55:29.251Z,13.03
2023-03-25T03:58:02.812Z,13.02
2023-03-25T04:01:00.344Z,13.01
2023-03-25T04:03:39.105Z,13.00
2023-03-25T04:06:27.136Z,13.01
2023-03-25T04:09:28.371Z,13.02
2023-03-25T04:12:00.736Z,13.02
2023-03-25T04:14:33.209Z,13.02
2023-03-25T04:17:01.951Z,13.01
2023-03-25T04:19:30.253Z,13.00
2023-03-25T04:22:01.932Z,13.00
2023-03-25T04:24:31.646Z,13.00
2023-03-25T04:27:03.640Z,12.98
2023-03-25T04:29:32.157Z,12.97
2023-03-25T04:32:01.374Z,12.95
2023-03-25T04:34:29.973Z,12.93
2023-03-25T04:36:59.012Z,12.92
2023-03-25T04:39:29.968Z,12.90
2023-03-25T04:42:03.688Z,12.87
2023-03-25T04:44:39.406Z,12.86
2023-03-25T04:47:07.942Z,12.84
2023-03-25T04:49:38.424Z,12.83
2023-03-25T04:52:09.469Z,12.81
2023-03-25T04:54:40.798Z,12.79
2023-03-25T04:57:09.896Z,12.78
2023-03-25T04:59:38.548Z,12.77
2023-03-25T05:02:06.910Z,12.75
2023-03-25T05:04:35.439Z,12.75
2023-03-25T05:07:07.821Z,12.74
2023-03-25T05:09:38.196Z,12.74
2023-03-25T05:12:11.508Z,12.74
2023-03-25T05:14:40.909Z,12.77
2023-03-25T05:17:09.679Z,12.78
2023-03-25T05:19:38.012Z,12.77
2023-03-25T05:22:07.869Z,12.77
2023-03-25T05:24:37.293Z,12.76
2023-03-25T05:27:10.524Z,12.76
2023-03-25T05:29:39.653Z,12.74
2023-03-25T05:32:08.080Z,12.75
2023-03-25T05:34:38.770Z,12.75
2023-03-25T05:37:07.017Z,12.77
2023-03-25T05:39:39.134Z,12.78
2023-03-25T05:42:11.012Z,12.79
2023-03-25T05:44:51.259Z,12.79
2023-03-25T05:47:24.358Z,12.79
2023-03-25T05:49:54.086Z,12.79
2023-03-25T05:52:24.813Z,12.81
2023-03-25T05:54:53.195Z,12.82
2023-03-25T05:57:21.821Z,12.83
2023-03-25T05:59:50.388Z,12.85
2023-03-25T06:02:18.811Z,12.87
2023-03-25T06:04:50.568Z,12.87
2023-03-25T06:07:22.388Z,12.88
2023-03-25T06:09:56.028Z,12.88
2023-03-25T06:12:27.669Z,12.90
2023-03-25T06:14:55.984Z,12.91
2023-03-25T06:17:24.461Z,12.92
2023-03-25T06:19:52.715Z,12.93
2023-03-25T06:22:22.256Z,12.94
2023-03-25T06:24:53.364Z,12.95
2023-03-25T06:27:23.896Z,12.96
2023-03-25T06:29:52.257Z,12.97
2023-03-25T06:32:20.520Z,12.97
2023-03-25T06:34:48.794Z,12.97
2023-03-25T06:37:18.187Z,12.97
2023-03-25T06:39:49.888Z,12.96
2023-03-25T06:42:24.105Z,12.95
2023-03-25T06:45:08.755Z,12.93
2023-03-25T06:48:00.790Z,12.93
2023-03-25T06:50:29.828Z,12.92
2023-03-25T06:52:58.847Z,12.92
2023-03-25T06:55:27.666Z,12.93
2023-03-25T06:57:56.472Z,12.94
2023-03-25T07:00:28.611Z,12.95
2023-03-25T07:02:58.843Z,12.95
2023-03-25T07:05:27.245Z,12.95
2023-03-25T07:07:59.038Z,12.93
2023-03-25T07:10:27.364Z,12.91
2023-03-25T07:12:55.850Z,12.91
2023-03-25T07:15:25.292Z,12.92
2023-03-25T07:17:53.560Z,12.94
2023-03-25T07:20:23.220Z,12.96
2023-03-25T07:22:55.019Z,12.98
2023-03-25T07:25:23.566Z,13.02
2023-03-25T07:27:53.080Z,13.04
2023-03-25T07:30:22.060Z,13.08
2023-03-25T07:32:50.807Z,13.13
2023-03-25T07:35:20.437Z,13.17
2023-03-25T07:37:48.687Z,13.23
2023-03-25T07:40:17.577Z,13.29
2023-03-25T07:42:45.856Z,13.35
2023-03-25T07:45:22.743Z,13.43
2023-03-25T07:47:53.456Z,13.52
2023-03-25T07:50:24.925Z,13.61
2023-03-25T07:52:57.544Z,13.70
2023-03-25T07:55:26.036Z,13.80
2023-03-25T07:57:54.328Z,13.88
2023-03-25T08:00:27.174Z,13.98
2023-03-25T08:02:56.739Z,14.07
2023-03-25T08:05:28.370Z,14.15
2023-03-25T08:08:00.290Z,14.22
2023-03-25T08:10:28.839Z,14.27
2023-03-25T08:13:04.039Z,14.32
2023-03-25T08:15:35.659Z,14.38
2023-03-25T08:18:05.369Z,14.44
2023-03-25T08:20:39.615Z,14.50
2023-03-25T08:23:12.723Z,14.55
2023-03-25T08:25:43.922Z,14.58
2023-03-25T08:28:17.975Z,14.62
2023-03-25T08:30:47.064Z,14.65
2023-03-25T08:33:16.774Z,14.70
2023-03-25T08:35:57.442Z,14.74
2023-03-25T08:38:34.251Z,14.78
2023-03-25T08:41:04.935Z,14.81
2023-03-25T08:43:33.544Z,14.84
2023-03-25T08:46:08.598Z,14.88
2023-03-25T08:48:38.064Z,14.95
2023-03-25T08:51:07.316Z,15.04
2023-03-25T08:53:37.838Z,15.13
2023-03-25T08:56:07.612Z,15.18
2023-03-25T08:58:38.281Z,15.22
2023-03-25T09:01:07.363Z,15.25
2023-03-25T09:03:38.775Z,15.27
2023-03-25T09:06:08.862Z,15.28
2023-03-25T09:08:37.357Z,15.30
2023-03-25T09:11:08.525Z,15.32
2023-03-25T09:13:41.536Z,15.33
2023-03-25T09:16:10.579Z,15.36
2023-03-25T09:18:45.373Z,15.39
2023-03-25T09:21:13.668Z,15.41
2023-03-25T09:23:43.386Z,15.43
2023-03-25T09:26:13.111Z,15.48
2023-03-25T09:28:43.657Z,15.54
2023-03-25T09:31:12.900Z,15.61
2023-03-25T09:33:44.206Z,15.68
2023-03-25T09:36:13.234Z,15.75
2023-03-25T09:38:47.979Z,15.81
2023-03-25T09:41:35.234Z,15.87
2023-03-25T09:44:22.255Z,15.94
2023-03-25T09:46:50.933Z,15.98
2023-03-25T09:49:21.815Z,16.01
2023-03-25T09:51:53.270Z,16.04
2023-03-25T09:54:30.322Z,16.06
2023-03-25T09:57:08.157Z,16.06
2023-03-25T09:59:49.335Z,16.06
2023-03-25T10:02:45.756Z,16.04
2023-03-25T10:05:24.100Z,16.03
2023-03-25T10:07:56.599Z,16.02
2023-03-25T10:10:27.697Z,16.02
2023-03-25T10:13:15.182Z,16.02
2023-03-25T10:16:31.668Z,16.00
2023-03-25T10:19:30.443Z,16.00
2023-03-25T10:22:07.388Z,15.98
2023-03-25T10:24:51.200Z,15.95
2023-03-25T10:27:36.148Z,15.93
2023-03-25T10:30:20.843Z,15.93
2023-03-25T10:32:59.671Z,15.93
2023-03-25T10:35:39.817Z,15.91
2023-03-25T10:38:21.591Z,15.92
2023-03-25T10:40:54.519Z,15.93
2023-03-25T10:43:23.779Z,15.93
2023-03-25T10:45:57.499Z,15.93
2023-03-25T10:48:28.180Z,15.95
2023-03-25T10:51:11.457Z,15.96
2023-03-25T10:53:40.850Z,15.97
2023-03-25T10:56:14.222Z,15.97
2023-03-25T10:58:42.961Z,15.99
2023-03-25T11:01:17.949Z,16.00
2023-03-25T11:04:09.141Z,16.02
2023-03-25T11:06:42.325Z,16.04
2023-03-25T11:09:30.792Z,16.04
2023-03-25T11:12:05.546Z,16.05
2023-03-25T11:14:37.784Z,16.08
2023-03-25T11:17:15.592Z,16.09
2023-03-25T11:19:52.575Z,16.11
2023-03-25T11:22:37.164Z,16.14
2023-03-25T11:25:12.477Z,16.18
2023-03-25T11:27:46.800Z,16.20
2023-03-25T11:30:20.432Z,16.22
2023-03-25T11:33:14.119Z,16.22
2023-03-25T11:35:44.623Z,16.22
2023-03-25T11:38:15.313Z,16.21
2023-03-25T11:40:54.565Z,16.19
2023-03-25T11:43:26.482Z,16.17
2023-03-25T11:45:55.758Z,16.16
2023-03-25T11:48:24.962Z,16.14
2023-03-25T11:50:57.826Z,16.10
2023-03-25T11:53:27.699Z,16.06
2023-03-25T11:56:04.763Z,16.03
2023-03-25T11:58:34.393Z,16.00
2023-03-25T12:01:06.456Z,15.99
2023-03-25T12:03:36.601Z,15.98
2023-03-25T12:06:16.972Z,15.96
2023-03-25T12:08:49.934Z,15.95
2023-03-25T12:11:29.335Z,15.94
2023-03-25T12:14:24.825Z,15.94
2023-03-25T12:17:25.667Z,15.94
2023-03-25T12:20:25.145Z,15.96
2023-03-25T12:23:28.719Z,15.98
2023-03-25T12:26:12.700Z,15.98
2023-03-25T12:29:04.111Z,15.97
2023-03-25T12:31:43.098Z,15.97
2023-03-25T12:34:51.911Z,15.97
2023-03-25T12:37:47.574Z,15.99
2023-03-25T12:40:38.036Z,15.98
2023-03-25T12:43:21.614Z,16.00
2023-03-25T12:45:55.913Z,16.01
2023-03-25T12:48:43.445Z,16.01
2023-03-25T12:51:40.005Z,16.01
2023-03-25T12:54:23.653Z,16.01
2023-03-25T12:57:13.633Z,16.02
2023-03-25T13:00:01.283Z,16.05
2023-03-25T13:02:54.921Z,16.07
2023-03-25T13:05:27.539Z,16.11
2023-03-25T13:07:59.656Z,16.14
2023-03-25T13:10:34.040Z,16.18
2023-03-25T13:13:04.463Z,16.22
2023-03-25T13:15:44.074Z,16.28
2023-03-25T13:18:27.083Z,16.36
2023-03-25T13:21:14.220Z,16.49
2023-03-25T13:23:45.709Z,16.65
2023-03-25T13:26:18.335Z,16.80
2023-03-25T13:29:12.314Z,16.98
2023-03-25T13:31:42.548Z,17.26
2023-03-25T13:34:14.306Z,17.50
2023-03-25T13:36:53.561Z,17.71
2023-03-25T13:39:25.516Z,17.94
2023-03-25T13:42:00.391Z,18.15
2023-03-25T13:44:47.160Z,18.32
2023-03-25T13:47:37.482Z,18.46
2023-03-25T13:50:29.285Z,18.51
2023-03-25T13:53:24.643Z,18.53
2023-03-25T13:56:11.665Z,18.52
2023-03-25T13:59:05.656Z,18.46
2023-03-25T14:01:52.911Z,18.35
2023-03-25T14:04:44.683Z,18.27
2023-03-25T14:07:21.356Z,18.22
2023-03-25T14:10:19.213Z,18.17
2023-03-25T14:12:51.303Z,18.06
2023-03-25T14:15:34.489Z,17.96
2023-03-25T14:18:03.209Z,17.84
2023-03-25T14:20:37.749Z,17.76
2023-03-25T14:23:09.253Z,17.71
2023-03-25T14:25:46.275Z,17.65
2023-03-25T14:28:32.074Z,17.61
2023-03-25T14:31:12.182Z,17.57
2023-03-25T14:34:02.433Z,17.53
2023-03-25T14:36:42.044Z,17.50
2023-03-25T14:39:12.616Z,17.47
2023-03-25T14:42:02.817Z,17.44
2023-03-25T14:44:35.526Z,17.41
2023-03-25T14:47:22.833Z,17.36
2023-03-25T14:50:27.817Z,17.29
2023-03-25T14:52:58.410Z,17.20
2023-03-25T14:55:40.892Z,17.15
2023-03-25T14:58:27.381Z,17.06
2023-03-25T15:01:04.630Z,16.98
2023-03-25T15:03:40.363Z,16.90
2023-03-25T15:06:17.333Z,16.83
2023-03-25T15:08:54.093Z,16.77
2023-03-25T15:11:27.678Z,16.75
2023-03-25T15:13:59.768Z,16.74
2023-03-25T15:16:40.609Z,16.71
2023-03-25T15:19:12.449Z,16.70
2023-03-25T15:21:58.190Z,16.67
2023-03-25T15:24:28.446Z,16.64
2023-03-25T15:27:25.352Z,16.61
2023-03-25T15:30:41.792Z,16.59
2023-03-25T15:33:26.149Z,16.55
2023-03-25T15:36:15.392Z,16.49
2023-03-25T15:39:03.508Z,16.45
2023-03-25T15:41:33.119Z,16.41
2023-03-25T15:44:23.634Z,16.37
2023-03-25T15:46:58.575Z,16.33
2023-03-25T15:49:51.848Z,16.28
2023-03-25T15:52:41.898Z,16.24
2023-03-25T15:55:38.510Z,16.19
2023-03-25T15:58:15.053Z,16.14
2023-03-25T16:00:48.082Z,16.09
2023-03-25T16:03:21.912Z,16.05
2023-03-25T16:06:01.781Z,16.02
2023-03-25T16:08:39.488Z,15.99
2023-03-25T16:11:15.803Z,15.96
2023-03-25T16:13:44.667Z,15.91
2023-03-25T16:16:17.635Z,15.89
2023-03-25T16:18:46.240Z,15.88
2023-03-25T16:21:14.833Z,15.85
2023-03-25T16:23:43.088Z,15.82
2023-03-25T16:26:13.514Z,15.78
2023-03-25T16:28:46.576Z,15.74
2023-03-25T16:31:34.407Z,15.70
2023-03-25T16:34:11.092Z,15.65
2023-03-25T16:36:48.121Z,15.62
2023-03-25T16:39:16.729Z,15.60
2023-03-25T16:41:51.989Z,15.58
2023-03-25T16:44:22.245Z,15.58
2023-03-25T16:46:52.308Z,15.56
2023-03-25T16:49:47.528Z,15.54
2023-03-25T16:52:21.280Z,15.48
2023-03-25T16:54:52.286Z,15.44
2023-03-25T16:57:27.828Z,15.41
2023-03-25T16:59:56.468Z,15.41
2023-03-25T17:02:43.426Z,15.42
2023-03-25T17:05:26.234Z,15.41
2023-03-25T17:08:02.744Z,15.40
2023-03-25T17:10:32.829Z,15.39
2023-03-25T17:13:08.349Z,15.36
2023-03-25T17:15:40.077Z,15.35
2023-03-25T17:18:13.947Z,15.34
2023-03-25T17:20:49.265Z,15.33
2023-03-25T17:23:27.493Z,15.29
2023-03-25T17:25:58.640Z,15.24
2023-03-25T17:28:41.550Z,15.20
2023-03-25T17:31:18.792Z,15.16
2023-03-25T17:34:09.075Z,15.14
2023-03-25T17:36:40.580Z,15.10
2023-03-25T17:39:43.211Z,15.07
2023-03-25T17:42:20.049Z,15.04
2023-03-25T17:44:48.594Z,15.02
2023-03-25T17:47:18.293Z,15.00
2023-03-25T17:49:47.599Z,14.99
2023-03-25T17:52:21.340Z,14.98
2023-03-25T17:54:49.771Z,14.97
2023-03-25T17:57:18.285Z,14.94
2023-03-25T17:59:47.372Z,14.89
2023-03-25T18:02:16.731Z,14.83
2023-03-25T18:04:45.130Z,14.78
2023-03-25T18:07:13.423Z,14.73
2023-03-25T18:09:42.496Z,14.69
2023-03-25T18:12:14.925Z,14.63
2023-03-25T18:14:44.977Z,14.60
2023-03-25T18:17:13.383Z,14.56
2023-03-25T18:19:47.554Z,14.51
2023-03-25T18:22:20.242Z,14.49
2023-03-25T18:24:53.131Z,14.49
2023-03-25T18:27:27.826Z,14.48
2023-03-25T18:30:34.989Z,14.46
2023-03-25T18:33:04.467Z,14.40
2023-03-25T18:35:34.025Z,14.36
2023-03-25T18:38:03.674Z,14.31
2023-03-25T18:40:34.891Z,14.30
2023-03-25T18:43:04.504Z,14.29
2023-03-25T18:45:32.931Z,14.29
2023-03-25T18:48:02.787Z,14.31
2023-03-25T18:50:39.395Z,14.31
2023-03-25T18:53:09.931Z,14.26
2023-03-25T18:55:38.472Z,14.18
2023-03-25T18:58:07.960Z,14.10
2023-03-25T19:00:39.747Z,14.04
2023-03-25T19:03:09.279Z,14.00
2023-03-25T19:05:37.701Z,13.98
2023-03-25T19:08:18.297Z,13.98
2023-03-25T19:10:47.271Z,13.97
2023-03-25T19:13:19.113Z,13.96
2023-03-25T19:15:47.963Z,13.96
2023-03-25T19:18:21.571Z,13.97
2023-03-25T19:20:50.135Z,13.99
2023-03-25T19:23:20.547Z,14.00
2023-03-25T19:25:50.135Z,14.04
2023-03-25T19:28:22.605Z,14.06
2023-03-25T19:30:51.635Z,14.08
2023-03-25T19:33:20.497Z,14.11
2023-03-25T19:35:50.712Z,14.13
2023-03-25T19:38:23.089Z,14.13
2023-03-25T19:41:05.283Z,14.12
2023-03-25T19:43:36.185Z,14.09
2023-03-25T19:46:05.664Z,14.06
2023-03-25T19:48:34.436Z,14.03
2023-03-25T19:51:03.207Z,14.01
2023-03-25T19:53:34.818Z,13.98
2023-03-25T19:56:04.345Z,13.94
2023-03-25T19:58:34.817Z,13.90
2023-03-25T20:01:03.626Z,13.87
2023-03-25T20:03:35.667Z,13.84
2023-03-25T20:06:06.599Z,13.80
2023-03-25T20:08:35.360Z,13.76
2023-03-25T20:11:12.166Z,13.73
2023-03-25T20:13:42.987Z,13.67
2023-03-25T20:16:12.201Z,13.65
2023-03-25T20:18:41.757Z,13.61
2023-03-25T20:21:13.553Z,13.59
2023-03-25T20:23:42.516Z,13.56
2023-03-25T20:26:11.158Z,13.52
2023-03-25T20:28:41.813Z,13.46
2023-03-25T20:31:18.570Z,13.41
2023-03-25T20:33:47.259Z,13.38
2023-03-25T20:36:16.572Z,13.35
2023-03-25T20:38:56.080Z,13.31
2023-03-25T20:41:26.449Z,13.26
2023-03-25T20:43:54.975Z,13.22
2023-03-25T20:46:27.659Z,13.17
2023-03-25T20:48:56.654Z,13.13
2023-03-25T20:51:25.814Z,13.09
2023-03-25T20:53:54.324Z,13.07
2023-03-25T20:56:22.766Z,13.06
2023-03-25T20:58:51.411Z,13.05
2023-03-25T21:01:21.551Z,13.05
2023-03-25T21:03:52.068Z,13.03
2023-03-25T21:06:24.559Z,13.01
2023-03-25T21:08:56.008Z,12.96
2023-03-25T21:11:24.463Z,12.91
2023-03-25T21:13:53.297Z,12.87
2023-03-25T21:16:22.020Z,12.85
2023-03-25T21:18:51.455Z,12.83
2023-03-25T21:21:20.153Z,12.79
2023-03-25T21:23:49.509Z,12.75
2023-03-25T21:26:22.908Z,12.74
2023-03-25T21:28:51.221Z,12.69
2023-03-25T21:31:22.168Z,12.62
2023-03-25T21:33:53.053Z,12.59
2023-03-25T21:36:26.567Z,12.56
2023-03-25T21:39:01.566Z,12.51
2023-03-25T21:41:30.085Z,12.44
2023-03-25T21:43:58.381Z,12.38
2023-03-25T21:46:27.905Z,12.35
2023-03-25T21:48:58.807Z,12.30
2023-03-25T21:51:30.843Z,12.27
2023-03-25T21:54:00.599Z,12.23
2023-03-25T21:56:31.525Z,12.22
2023-03-25T21:59:01.951Z,12.20
2023-03-25T22:01:32.691Z,12.18
2023-03-25T22:04:01.638Z,12.16
2023-03-25T22:06:31.892Z,12.09
2023-03-25T22:09:05.598Z,12.02
2023-03-25T22:11:37.197Z,11.94
2023-03-25T22:14:05.788Z,11.87
2023-03-25T22:16:36.680Z,11.81
2023-03-25T22:19:06.385Z,11.76
2023-03-25T22:21:37.088Z,11.73
2023-03-25T22:24:08.690Z,11.69
2023-03-25T22:26:42.512Z,11.65
2023-03-25T22:29:13.662Z,11.62
2023-03-25T22:31:43.036Z,11.63
2023-03-25T22:34:15.432Z,11.59
2023-03-25T22:36:50.282Z,11.54
2023-03-25T22:39:19.916Z,11.51
2023-03-25T22:41:48.192Z,11.46
2023-03-25T22:44:18.394Z,11.44
2023-03-25T22:46:50.949Z,11.42
2023-03-25T22:49:20.057Z,11.41
2023-03-25T22:51:51.251Z,11.36
2023-03-25T22:54:20.983Z,11.31
2023-03-25T22:56:49.442Z,11.27
2023-03-25T22:59:17.723Z,11.24
2023-03-25T23:01:46.639Z,11.22
2023-03-25T23:04:15.060Z,11.20
2023-03-25T23:06:48.994Z,11.19
2023-03-25T23:09:38.366Z,11.16
2023-03-25T23:12:11.832Z,11.13
2023-03-25T23:14:41.256Z,11.10
2023-03-25T23:17:11.239Z,11.09
2023-03-25T23:19:39.953Z,11.06
2023-03-25T23:22:09.029Z,11.05
2023-03-25T23:24:38.998Z,11.04
2023-03-25T23:27:08.439Z,11.04
2023-03-25T23:29:37.585Z,11.01
2023-03-25T23:32:06.971Z,10.98
2023-03-25T23:34:35.309Z,10.95
2023-03-25T23:37:03.926Z,10.94
2023-03-25T23:39:32.173Z,10.94
2023-03-25T23:42:01.473Z,10.92
2023-03-25T23:44:31.223Z,10.89
2023-03-25T23:46:59.841Z,10.85
2023-03-25T23:49:33.247Z,10.81
2023-03-25T23:52:11.746Z,10.77
2023-03-25T23:54:42.046Z,10.75
2023-03-25T23:57:11.545Z,10.73
2023-03-25T23:59:40.916Z,10.72
